sensor_id;sensor_type;location;lat;lon;timestamp;P1;durP1;ratioP1;P2;durP2;ratioP2
15451;SDS011;7827;53.594;9.938;2022-07-18T00:00:55;4.90;;;3.50;;
15451;SDS011;7827;53.594;9.938;2022-07-18T00:03:23;4.38;;;3.40;;
15451;SDS011;7827;53.594;9.938;2022-07-18T00:05:54;5.05;;;4.03;;
15451;SDS011;7827;53.594;9.938;2022-07-18T00:08:22;3.85;;;3.22;;
15451;SDS011;7827;53.594;9.938;2022-07-18T00:10:51;4.10;;;3.53;;
15451;SDS011;7827;53.594;9.938;2022-07-18T00:13:20;4.97;;;3.67;;
15451;SDS011;7827;53.594;9.938;2022-07-18T00:15:50;5.93;;;3.65;;
15451;SDS011;7827;53.594;9.938;2022-07-18T00:18:19;3.90;;;3.50;;
15451;SDS011;7827;53.594;9.938;2022-07-18T00:20:47;4.75;;;3.80;;
15451;SDS011;7827;53.594;9.938;2022-07-18T00:23:15;4.50;;;3.47;;
15451;SDS011;7827;53.594;9.938;2022-07-18T00:25:44;4.57;;;3.45;;
15451;SDS011;7827;53.594;9.938;2022-07-18T00:28:12;6.38;;;3.80;;
15451;SDS011;7827;53.594;9.938;2022-07-18T00:30:41;4.93;;;3.28;;
15451;SDS011;7827;53.594;9.938;2022-07-18T00:33:11;5.72;;;3.45;;
15451;SDS011;7827;53.594;9.938;2022-07-18T00:35:39;5.10;;;3.22;;
15451;SDS011;7827;53.594;9.938;2022-07-18T00:38:07;3.80;;;3.30;;
15451;SDS011;7827;53.594;9.938;2022-07-18T00:40:35;3.50;;;2.92;;
15451;SDS011;7827;53.594;9.938;2022-07-18T00:43:04;7.15;;;3.80;;
15451;SDS011;7827;53.594;9.938;2022-07-18T00:45:37;4.68;;;3.17;;
15451;SDS011;7827;53.594;9.938;2022-07-18T00:48:06;5.22;;;3.20;;
15451;SDS011;7827;53.594;9.938;2022-07-18T00:50:36;4.78;;;3.20;;
15451;SDS011;7827;53.594;9.938;2022-07-18T00:53:05;4.50;;;3.30;;
15451;SDS011;7827;53.594;9.938;2022-07-18T00:55:34;3.85;;;3.20;;
15451;SDS011;7827;53.594;9.938;2022-07-18T00:58:06;4.95;;;3.20;;
15451;SDS011;7827;53.594;9.938;2022-07-18T01:00:36;4.32;;;3.67;;
15451;SDS011;7827;53.594;9.938;2022-07-18T01:03:22;5.03;;;3.38;;
15451;SDS011;7827;53.594;9.938;2022-07-18T01:05:53;4.55;;;3.58;;
15451;SDS011;7827;53.594;9.938;2022-07-18T01:08:22;4.82;;;3.65;;
15451;SDS011;7827;53.594;9.938;2022-07-18T01:10:50;5.07;;;3.63;;
15451;SDS011;7827;53.594;9.938;2022-07-18T01:13:20;5.05;;;3.70;;
15451;SDS011;7827;53.594;9.938;2022-07-18T01:15:49;4.88;;;3.67;;
15451;SDS011;7827;53.594;9.938;2022-07-18T01:18:17;4.35;;;3.80;;
15451;SDS011;7827;53.594;9.938;2022-07-18T01:20:47;3.78;;;3.28;;
15451;SDS011;7827;53.594;9.938;2022-07-18T01:23:15;8.07;;;4.10;;
15451;SDS011;7827;53.594;9.938;2022-07-18T01:25:44;5.13;;;3.60;;
15451;SDS011;7827;53.594;9.938;2022-07-18T01:28:12;5.32;;;4.32;;
15451;SDS011;7827;53.594;9.938;2022-07-18T01:30:41;4.60;;;3.55;;
15451;SDS011;7827;53.594;9.938;2022-07-18T01:33:09;4.53;;;3.53;;
15451;SDS011;7827;53.594;9.938;2022-07-18T01:35:37;4.72;;;3.47;;
15451;SDS011;7827;53.594;9.938;2022-07-18T01:38:07;3.90;;;3.50;;
15451;SDS011;7827;53.594;9.938;2022-07-18T01:40:36;4.72;;;3.80;;
15451;SDS011;7827;53.594;9.938;2022-07-18T01:43:04;3.78;;;3.38;;
15451;SDS011;7827;53.594;9.938;2022-07-18T01:45:33;3.95;;;3.40;;
15451;SDS011;7827;53.594;9.938;2022-07-18T01:48:01;4.38;;;3.30;;
15451;SDS011;7827;53.594;9.938;2022-07-18T01:50:30;6.13;;;3.47;;
15451;SDS011;7827;53.594;9.938;2022-07-18T01:52:59;4.45;;;3.67;;
15451;SDS011;7827;53.594;9.938;2022-07-18T01:55:29;6.05;;;3.53;;
15451;SDS011;7827;53.594;9.938;2022-07-18T01:57:57;5.00;;;3.53;;
15451;SDS011;7827;53.594;9.938;2022-07-18T02:00:25;4.72;;;3.25;;
15451;SDS011;7827;53.594;9.938;2022-07-18T02:02:54;3.90;;;3.50;;
15451;SDS011;7827;53.594;9.938;2022-07-18T02:05:23;4.57;;;3.35;;
15451;SDS011;7827;53.594;9.938;2022-07-18T02:07:51;3.90;;;3.50;;
15451;SDS011;7827;53.594;9.938;2022-07-18T02:10:20;4.53;;;3.42;;
15451;SDS011;7827;53.594;9.938;2022-07-18T02:12:50;6.13;;;3.88;;
15451;SDS011;7827;53.594;9.938;2022-07-18T02:15:18;8.30;;;3.95;;
15451;SDS011;7827;53.594;9.938;2022-07-18T02:17:47;4.25;;;3.70;;
15451;SDS011;7827;53.594;9.938;2022-07-18T02:20:16;4.13;;;3.60;;
15451;SDS011;7827;53.594;9.938;2022-07-18T02:22:44;4.15;;;3.75;;
15451;SDS011;7827;53.594;9.938;2022-07-18T02:25:13;6.00;;;3.92;;
15451;SDS011;7827;53.594;9.938;2022-07-18T02:27:41;4.53;;;3.60;;
15451;SDS011;7827;53.594;9.938;2022-07-18T02:30:11;5.18;;;3.65;;
15451;SDS011;7827;53.594;9.938;2022-07-18T02:32:40;4.38;;;3.60;;
15451;SDS011;7827;53.594;9.938;2022-07-18T02:35:08;5.30;;;3.75;;
15451;SDS011;7827;53.594;9.938;2022-07-18T02:37:37;5.78;;;3.83;;
15451;SDS011;7827;53.594;9.938;2022-07-18T02:40:08;7.18;;;3.72;;
15451;SDS011;7827;53.594;9.938;2022-07-18T02:42:38;4.82;;;4.00;;
15451;SDS011;7827;53.594;9.938;2022-07-18T02:45:07;6.00;;;4.00;;
15451;SDS011;7827;53.594;9.938;2022-07-18T02:47:38;6.03;;;3.60;;
15451;SDS011;7827;53.594;9.938;2022-07-18T02:50:06;5.88;;;3.75;;
15451;SDS011;7827;53.594;9.938;2022-07-18T02:52:36;4.50;;;3.50;;
15451;SDS011;7827;53.594;9.938;2022-07-18T02:55:06;6.22;;;3.75;;
15451;SDS011;7827;53.594;9.938;2022-07-18T02:57:36;5.78;;;3.67;;
15451;SDS011;7827;53.594;9.938;2022-07-18T03:00:04;5.28;;;3.63;;
15451;SDS011;7827;53.594;9.938;2022-07-18T03:02:38;6.05;;;3.70;;
15451;SDS011;7827;53.594;9.938;2022-07-18T03:05:08;6.28;;;4.10;;
15451;SDS011;7827;53.594;9.938;2022-07-18T03:07:38;4.40;;;3.65;;
15451;SDS011;7827;53.594;9.938;2022-07-18T03:10:07;5.50;;;3.67;;
15451;SDS011;7827;53.594;9.938;2022-07-18T03:12:36;4.95;;;3.92;;
15451;SDS011;7827;53.594;9.938;2022-07-18T03:15:07;4.30;;;3.65;;
15451;SDS011;7827;53.594;9.938;2022-07-18T03:17:37;7.15;;;4.30;;
15451;SDS011;7827;53.594;9.938;2022-07-18T03:20:06;5.40;;;3.75;;
15451;SDS011;7827;53.594;9.938;2022-07-18T03:22:36;5.68;;;4.00;;
15451;SDS011;7827;53.594;9.938;2022-07-18T03:25:04;5.28;;;3.70;;
15451;SDS011;7827;53.594;9.938;2022-07-18T03:27:40;6.65;;;3.78;;
15451;SDS011;7827;53.594;9.938;2022-07-18T03:30:09;4.72;;;4.13;;
15451;SDS011;7827;53.594;9.938;2022-07-18T03:32:40;6.60;;;4.03;;
15451;SDS011;7827;53.594;9.938;2022-07-18T03:35:09;6.47;;;3.83;;
15451;SDS011;7827;53.594;9.938;2022-07-18T03:37:37;5.95;;;4.35;;
15451;SDS011;7827;53.594;9.938;2022-07-18T03:40:06;4.05;;;3.38;;
15451;SDS011;7827;53.594;9.938;2022-07-18T03:42:36;4.78;;;4.10;;
15451;SDS011;7827;53.594;9.938;2022-07-18T03:45:05;4.68;;;3.97;;
15451;SDS011;7827;53.594;9.938;2022-07-18T03:47:36;4.35;;;3.78;;
15451;SDS011;7827;53.594;9.938;2022-07-18T03:50:07;7.50;;;4.00;;
15451;SDS011;7827;53.594;9.938;2022-07-18T03:52:36;4.63;;;3.95;;
15451;SDS011;7827;53.594;9.938;2022-07-18T03:55:05;4.47;;;3.90;;
15451;SDS011;7827;53.594;9.938;2022-07-18T03:57:34;6.35;;;3.88;;
15451;SDS011;7827;53.594;9.938;2022-07-18T04:00:03;5.40;;;4.10;;
15451;SDS011;7827;53.594;9.938;2022-07-18T04:02:38;7.30;;;4.28;;
15451;SDS011;7827;53.594;9.938;2022-07-18T04:05:32;6.88;;;4.07;;
15451;SDS011;7827;53.594;9.938;2022-07-18T04:08:01;7.68;;;4.60;;
15451;SDS011;7827;53.594;9.938;2022-07-18T04:10:29;9.20;;;4.65;;
15451;SDS011;7827;53.594;9.938;2022-07-18T04:12:59;9.25;;;4.10;;
15451;SDS011;7827;53.594;9.938;2022-07-18T04:15:27;5.18;;;4.30;;
15451;SDS011;7827;53.594;9.938;2022-07-18T04:17:58;6.55;;;3.92;;
15451;SDS011;7827;53.594;9.938;2022-07-18T04:20:26;6.22;;;3.97;;
15451;SDS011;7827;53.594;9.938;2022-07-18T04:22:57;5.22;;;4.10;;
15451;SDS011;7827;53.594;9.938;2022-07-18T04:25:33;5.97;;;4.70;;
15451;SDS011;7827;53.594;9.938;2022-07-18T04:28:03;6.93;;;4.70;;
15451;SDS011;7827;53.594;9.938;2022-07-18T04:30:32;8.88;;;5.00;;
15451;SDS011;7827;53.594;9.938;2022-07-18T04:33:02;6.55;;;4.88;;
15451;SDS011;7827;53.594;9.938;2022-07-18T04:35:32;8.98;;;5.15;;
15451;SDS011;7827;53.594;9.938;2022-07-18T04:38:03;8.50;;;4.93;;
15451;SDS011;7827;53.594;9.938;2022-07-18T04:40:32;6.22;;;5.22;;
15451;SDS011;7827;53.594;9.938;2022-07-18T04:43:01;10.27;;;5.38;;
15451;SDS011;7827;53.594;9.938;2022-07-18T04:45:30;6.43;;;5.38;;
15451;SDS011;7827;53.594;9.938;2022-07-18T04:48:00;9.23;;;5.60;;
15451;SDS011;7827;53.594;9.938;2022-07-18T04:50:29;10.40;;;4.80;;
15451;SDS011;7827;53.594;9.938;2022-07-18T04:52:59;11.35;;;6.13;;
15451;SDS011;7827;53.594;9.938;2022-07-18T04:55:28;6.72;;;5.13;;
15451;SDS011;7827;53.594;9.938;2022-07-18T04:57:57;8.27;;;5.40;;
15451;SDS011;7827;53.594;9.938;2022-07-18T05:00:25;8.55;;;5.40;;
15451;SDS011;7827;53.594;9.938;2022-07-18T05:02:55;8.73;;;5.45;;
15451;SDS011;7827;53.594;9.938;2022-07-18T05:05:25;9.38;;;5.18;;
15451;SDS011;7827;53.594;9.938;2022-07-18T05:08:02;9.50;;;5.82;;
15451;SDS011;7827;53.594;9.938;2022-07-18T05:10:33;9.02;;;5.63;;
15451;SDS011;7827;53.594;9.938;2022-07-18T05:13:01;8.13;;;5.72;;
15451;SDS011;7827;53.594;9.938;2022-07-18T05:15:29;10.25;;;5.85;;
15451;SDS011;7827;53.594;9.938;2022-07-18T05:17:58;9.65;;;5.63;;
15451;SDS011;7827;53.594;9.938;2022-07-18T05:20:26;9.45;;;5.15;;
15451;SDS011;7827;53.594;9.938;2022-07-18T05:22:55;8.82;;;5.80;;
15451;SDS011;7827;53.594;9.938;2022-07-18T05:25:23;6.80;;;5.32;;
15451;SDS011;7827;53.594;9.938;2022-07-18T05:27:53;8.88;;;6.10;;
15451;SDS011;7827;53.594;9.938;2022-07-18T05:30:21;9.25;;;6.28;;
15451;SDS011;7827;53.594;9.938;2022-07-18T05:32:50;7.60;;;5.63;;
15451;SDS011;7827;53.594;9.938;2022-07-18T05:35:19;8.10;;;5.63;;
15451;SDS011;7827;53.594;9.938;2022-07-18T05:37:48;7.78;;;6.05;;
15451;SDS011;7827;53.594;9.938;2022-07-18T05:40:18;10.57;;;5.60;;
15451;SDS011;7827;53.594;9.938;2022-07-18T05:42:46;10.43;;;5.60;;
15451;SDS011;7827;53.594;9.938;2022-07-18T05:45:21;9.27;;;5.75;;
15451;SDS011;7827;53.594;9.938;2022-07-18T05:47:50;12.57;;;5.85;;
15451;SDS011;7827;53.594;9.938;2022-07-18T05:50:19;13.30;;;6.57;;
15451;SDS011;7827;53.594;9.938;2022-07-18T05:52:48;10.50;;;5.70;;
15451;SDS011;7827;53.594;9.938;2022-07-18T05:55:17;9.55;;;5.68;;
15451;SDS011;7827;53.594;9.938;2022-07-18T05:57:45;11.38;;;6.15;;
15451;SDS011;7827;53.594;9.938;2022-07-18T06:00:16;10.65;;;6.93;;
15451;SDS011;7827;53.594;9.938;2022-07-18T06:02:48;14.35;;;6.90;;
15451;SDS011;7827;53.594;9.938;2022-07-18T06:05:18;8.98;;;6.47;;
15451;SDS011;7827;53.594;9.938;2022-07-18T06:07:50;12.32;;;5.97;;
15451;SDS011;7827;53.594;9.938;2022-07-18T06:10:19;10.13;;;6.50;;
15451;SDS011;7827;53.594;9.938;2022-07-18T06:12:48;11.43;;;6.40;;
15451;SDS011;7827;53.594;9.938;2022-07-18T06:15:17;11.20;;;7.05;;
15451;SDS011;7827;53.594;9.938;2022-07-18T06:17:47;12.27;;;7.18;;
15451;SDS011;7827;53.594;9.938;2022-07-18T06:20:16;11.15;;;7.07;;
15451;SDS011;7827;53.594;9.938;2022-07-18T06:22:45;10.57;;;7.10;;
15451;SDS011;7827;53.594;9.938;2022-07-18T06:25:13;14.05;;;7.22;;
15451;SDS011;7827;53.594;9.938;2022-07-18T06:27:42;9.35;;;7.75;;
15451;SDS011;7827;53.594;9.938;2022-07-18T06:30:11;9.38;;;6.85;;
15451;SDS011;7827;53.594;9.938;2022-07-18T06:32:39;15.20;;;6.88;;
15451;SDS011;7827;53.594;9.938;2022-07-18T06:35:10;19.83;;;8.02;;
15451;SDS011;7827;53.594;9.938;2022-07-18T06:37:38;15.95;;;7.45;;
15451;SDS011;7827;53.594;9.938;2022-07-18T06:40:07;12.20;;;7.43;;
15451;SDS011;7827;53.594;9.938;2022-07-18T06:42:36;25.95;;;7.75;;
15451;SDS011;7827;53.594;9.938;2022-07-18T06:45:05;20.80;;;8.93;;
15451;SDS011;7827;53.594;9.938;2022-07-18T06:47:39;31.77;;;7.38;;
15451;SDS011;7827;53.594;9.938;2022-07-18T06:50:10;18.65;;;7.70;;
15451;SDS011;7827;53.594;9.938;2022-07-18T06:52:41;18.92;;;6.85;;
15451;SDS011;7827;53.594;9.938;2022-07-18T06:55:12;15.77;;;7.93;;
15451;SDS011;7827;53.594;9.938;2022-07-18T06:57:42;15.43;;;7.28;;
15451;SDS011;7827;53.594;9.938;2022-07-18T07:00:11;11.40;;;7.15;;
15451;SDS011;7827;53.594;9.938;2022-07-18T07:02:42;14.95;;;7.35;;
15451;SDS011;7827;53.594;9.938;2022-07-18T07:05:15;13.60;;;7.85;;
15451;SDS011;7827;53.594;9.938;2022-07-18T07:07:46;15.23;;;7.00;;
15451;SDS011;7827;53.594;9.938;2022-07-18T07:10:16;19.10;;;7.50;;
15451;SDS011;7827;53.594;9.938;2022-07-18T07:12:46;12.02;;;7.38;;
15451;SDS011;7827;53.594;9.938;2022-07-18T07:15:17;14.45;;;7.72;;
15451;SDS011;7827;53.594;9.938;2022-07-18T07:17:48;14.98;;;7.60;;
15451;SDS011;7827;53.594;9.938;2022-07-18T07:20:18;12.95;;;7.68;;
15451;SDS011;7827;53.594;9.938;2022-07-18T07:22:48;15.50;;;7.93;;
15451;SDS011;7827;53.594;9.938;2022-07-18T07:25:19;15.93;;;7.45;;
15451;SDS011;7827;53.594;9.938;2022-07-18T07:27:49;14.27;;;7.47;;
15451;SDS011;7827;53.594;9.938;2022-07-18T07:30:18;11.10;;;7.72;;
15451;SDS011;7827;53.594;9.938;2022-07-18T07:32:47;10.82;;;7.80;;
15451;SDS011;7827;53.594;9.938;2022-07-18T07:35:18;9.23;;;7.05;;
15451;SDS011;7827;53.594;9.938;2022-07-18T07:37:49;12.95;;;7.78;;
15451;SDS011;7827;53.594;9.938;2022-07-18T07:40:19;16.52;;;7.55;;
15451;SDS011;7827;53.594;9.938;2022-07-18T07:42:50;9.88;;;7.10;;
15451;SDS011;7827;53.594;9.938;2022-07-18T07:45:19;14.27;;;7.20;;
15451;SDS011;7827;53.594;9.938;2022-07-18T07:47:48;9.00;;;6.78;;
15451;SDS011;7827;53.594;9.938;2022-07-18T07:50:17;15.60;;;7.70;;
15451;SDS011;7827;53.594;9.938;2022-07-18T07:52:45;15.02;;;7.28;;
15451;SDS011;7827;53.594;9.938;2022-07-18T07:55:14;15.15;;;7.57;;
15451;SDS011;7827;53.594;9.938;2022-07-18T07:57:42;19.75;;;8.05;;
15451;SDS011;7827;53.594;9.938;2022-07-18T08:00:10;13.40;;;7.50;;
15451;SDS011;7827;53.594;9.938;2022-07-18T08:02:49;9.25;;;7.32;;
15451;SDS011;7827;53.594;9.938;2022-07-18T08:05:27;11.48;;;6.88;;
15451;SDS011;7827;53.594;9.938;2022-07-18T08:07:57;11.20;;;6.88;;
15451;SDS011;7827;53.594;9.938;2022-07-18T08:10:28;11.07;;;6.47;;
15451;SDS011;7827;53.594;9.938;2022-07-18T08:12:58;8.32;;;6.45;;
15451;SDS011;7827;53.594;9.938;2022-07-18T08:15:26;6.88;;;5.75;;
15451;SDS011;7827;53.594;9.938;2022-07-18T08:17:55;10.32;;;5.20;;
15451;SDS011;7827;53.594;9.938;2022-07-18T08:20:23;7.45;;;4.82;;
15451;SDS011;7827;53.594;9.938;2022-07-18T08:22:54;6.45;;;5.10;;
15451;SDS011;7827;53.594;9.938;2022-07-18T08:25:25;7.38;;;5.50;;
15451;SDS011;7827;53.594;9.938;2022-07-18T08:27:56;8.07;;;5.28;;
15451;SDS011;7827;53.594;9.938;2022-07-18T08:30:25;10.77;;;6.00;;
15451;SDS011;7827;53.594;9.938;2022-07-18T08:32:54;14.45;;;5.72;;
15451;SDS011;7827;53.594;9.938;2022-07-18T08:35:22;9.55;;;6.13;;
15451;SDS011;7827;53.594;9.938;2022-07-18T08:37:51;7.68;;;5.78;;
15451;SDS011;7827;53.594;9.938;2022-07-18T08:40:21;8.55;;;5.55;;
15451;SDS011;7827;53.594;9.938;2022-07-18T08:42:50;8.10;;;5.65;;
15451;SDS011;7827;53.594;9.938;2022-07-18T08:45:41;10.32;;;5.28;;
15451;SDS011;7827;53.594;9.938;2022-07-18T08:48:12;10.30;;;5.57;;
15451;SDS011;7827;53.594;9.938;2022-07-18T08:50:42;7.57;;;5.15;;
15451;SDS011;7827;53.594;9.938;2022-07-18T08:53:12;6.18;;;4.90;;
15451;SDS011;7827;53.594;9.938;2022-07-18T08:55:43;6.95;;;5.05;;
15451;SDS011;7827;53.594;9.938;2022-07-18T08:58:12;10.57;;;5.53;;
15451;SDS011;7827;53.594;9.938;2022-07-18T09:01:03;7.60;;;5.07;;
15451;SDS011;7827;53.594;9.938;2022-07-18T09:03:32;7.97;;;4.95;;
15451;SDS011;7827;53.594;9.938;2022-07-18T09:06:04;5.63;;;4.70;;
15451;SDS011;7827;53.594;9.938;2022-07-18T09:08:36;7.78;;;4.47;;
15451;SDS011;7827;53.594;9.938;2022-07-18T09:11:08;9.65;;;5.35;;
15451;SDS011;7827;53.594;9.938;2022-07-18T09:13:58;5.40;;;4.45;;
15451;SDS011;7827;53.594;9.938;2022-07-18T09:16:27;10.23;;;4.65;;
15451;SDS011;7827;53.594;9.938;2022-07-18T09:18:55;7.45;;;4.60;;
15451;SDS011;7827;53.594;9.938;2022-07-18T09:21:24;7.43;;;4.43;;
15451;SDS011;7827;53.594;9.938;2022-07-18T09:23:59;7.88;;;4.47;;
15451;SDS011;7827;53.594;9.938;2022-07-18T09:26:36;5.95;;;4.90;;
15451;SDS011;7827;53.594;9.938;2022-07-18T09:29:07;6.70;;;4.55;;
15451;SDS011;7827;53.594;9.938;2022-07-18T09:31:52;7.30;;;4.30;;
15451;SDS011;7827;53.594;9.938;2022-07-18T09:34:31;5.78;;;4.55;;
15451;SDS011;7827;53.594;9.938;2022-07-18T09:37:01;6.25;;;4.78;;
15451;SDS011;7827;53.594;9.938;2022-07-18T09:39:32;7.32;;;5.25;;
15451;SDS011;7827;53.594;9.938;2022-07-18T09:42:13;7.72;;;5.18;;
15451;SDS011;7827;53.594;9.938;2022-07-18T09:44:43;6.93;;;4.88;;
15451;SDS011;7827;53.594;9.938;2022-07-18T09:47:26;5.70;;;4.30;;
15451;SDS011;7827;53.594;9.938;2022-07-18T09:49:54;7.63;;;4.25;;
15451;SDS011;7827;53.594;9.938;2022-07-18T09:52:22;5.93;;;4.95;;
15451;SDS011;7827;53.594;9.938;2022-07-18T09:54:52;5.78;;;4.40;;
15451;SDS011;7827;53.594;9.938;2022-07-18T09:57:32;5.93;;;4.85;;
15451;SDS011;7827;53.594;9.938;2022-07-18T10:00:02;5.97;;;4.63;;
15451;SDS011;7827;53.594;9.938;2022-07-18T10:02:37;8.45;;;4.47;;
15451;SDS011;7827;53.594;9.938;2022-07-18T10:05:07;8.45;;;5.15;;
15451;SDS011;7827;53.594;9.938;2022-07-18T10:07:37;7.90;;;4.35;;
15451;SDS011;7827;53.594;9.938;2022-07-18T10:10:08;7.05;;;4.60;;
15451;SDS011;7827;53.594;9.938;2022-07-18T10:12:36;5.80;;;4.45;;
15451;SDS011;7827;53.594;9.938;2022-07-18T10:15:05;8.18;;;4.60;;
15451;SDS011;7827;53.594;9.938;2022-07-18T10:17:35;5.70;;;4.28;;
15451;SDS011;7827;53.594;9.938;2022-07-18T10:20:06;6.35;;;4.72;;
15451;SDS011;7827;53.594;9.938;2022-07-18T10:22:37;7.40;;;4.70;;
15451;SDS011;7827;53.594;9.938;2022-07-18T10:25:10;5.57;;;4.15;;
15451;SDS011;7827;53.594;9.938;2022-07-18T10:27:47;5.53;;;3.95;;
15451;SDS011;7827;53.594;9.938;2022-07-18T10:30:18;6.75;;;4.43;;
15451;SDS011;7827;53.594;9.938;2022-07-18T10:32:59;7.68;;;4.45;;
15451;SDS011;7827;53.594;9.938;2022-07-18T10:38:38;6.22;;;4.95;;
15451;SDS011;7827;53.594;9.938;2022-07-18T10:41:35;7.00;;;5.30;;
15451;SDS011;7827;53.594;9.938;2022-07-18T10:44:51;8.05;;;5.43;;
15451;SDS011;7827;53.594;9.938;2022-07-18T10:47:20;9.98;;;4.97;;
15451;SDS011;7827;53.594;9.938;2022-07-18T10:50:02;6.13;;;4.70;;
15451;SDS011;7827;53.594;9.938;2022-07-18T10:55:30;6.75;;;4.85;;
15451;SDS011;7827;53.594;9.938;2022-07-18T10:58:17;10.73;;;5.13;;
15451;SDS011;7827;53.594;9.938;2022-07-18T11:00:51;6.10;;;4.68;;
15451;SDS011;7827;53.594;9.938;2022-07-18T11:03:30;9.50;;;5.40;;
15451;SDS011;7827;53.594;9.938;2022-07-18T11:05:58;9.07;;;4.97;;
15451;SDS011;7827;53.594;9.938;2022-07-18T11:08:29;6.88;;;5.22;;
15451;SDS011;7827;53.594;9.938;2022-07-18T11:11:08;8.15;;;4.90;;
15451;SDS011;7827;53.594;9.938;2022-07-18T11:13:44;10.45;;;5.10;;
15451;SDS011;7827;53.594;9.938;2022-07-18T11:16:27;15.48;;;6.22;;
15451;SDS011;7827;53.594;9.938;2022-07-18T11:19:17;9.80;;;5.72;;
15451;SDS011;7827;53.594;9.938;2022-07-18T11:21:57;8.90;;;5.95;;
15451;SDS011;7827;53.594;9.938;2022-07-18T11:24:26;11.88;;;6.43;;
15451;SDS011;7827;53.594;9.938;2022-07-18T11:26:55;12.80;;;6.60;;
15451;SDS011;7827;53.594;9.938;2022-07-18T11:29:25;8.65;;;6.10;;
15451;SDS011;7827;53.594;9.938;2022-07-18T11:31:54;7.38;;;5.90;;
15451;SDS011;7827;53.594;9.938;2022-07-18T11:34:24;8.95;;;5.68;;
15451;SDS011;7827;53.594;9.938;2022-07-18T11:37:06;9.55;;;5.70;;
15451;SDS011;7827;53.594;9.938;2022-07-18T11:39:34;7.97;;;5.50;;
15451;SDS011;7827;53.594;9.938;2022-07-18T11:42:03;8.35;;;6.15;;
15451;SDS011;7827;53.594;9.938;2022-07-18T11:44:33;9.68;;;5.95;;
15451;SDS011;7827;53.594;9.938;2022-07-18T11:47:02;8.90;;;6.20;;
15451;SDS011;7827;53.594;9.938;2022-07-18T11:49:33;9.80;;;6.10;;
15451;SDS011;7827;53.594;9.938;2022-07-18T11:52:04;10.40;;;6.10;;
15451;SDS011;7827;53.594;9.938;2022-07-18T11:54:35;9.27;;;6.05;;
15451;SDS011;7827;53.594;9.938;2022-07-18T11:57:03;9.02;;;6.45;;
15451;SDS011;7827;53.594;9.938;2022-07-18T11:59:36;7.22;;;6.22;;
15451;SDS011;7827;53.594;9.938;2022-07-18T12:02:07;11.02;;;6.00;;
15451;SDS011;7827;53.594;9.938;2022-07-18T12:04:36;8.13;;;6.15;;
15451;SDS011;7827;53.594;9.938;2022-07-18T12:07:14;9.23;;;5.88;;
15451;SDS011;7827;53.594;9.938;2022-07-18T12:09:50;7.40;;;5.88;;
15451;SDS011;7827;53.594;9.938;2022-07-18T12:12:21;11.50;;;6.00;;
15451;SDS011;7827;53.594;9.938;2022-07-18T12:14:56;9.32;;;5.88;;
15451;SDS011;7827;53.594;9.938;2022-07-18T12:17:26;9.20;;;5.78;;
15451;SDS011;7827;53.594;9.938;2022-07-18T12:20:08;6.93;;;5.72;;
15451;SDS011;7827;53.594;9.938;2022-07-18T12:25:35;9.45;;;5.70;;
15451;SDS011;7827;53.594;9.938;2022-07-18T12:28:12;8.23;;;5.45;;
15451;SDS011;7827;53.594;9.938;2022-07-18T12:30:48;8.38;;;5.25;;
15451;SDS011;7827;53.594;9.938;2022-07-18T12:33:20;9.57;;;5.38;;
15451;SDS011;7827;53.594;9.938;2022-07-18T12:35:55;6.38;;;5.18;;
15451;SDS011;7827;53.594;9.938;2022-07-18T12:38:26;5.80;;;4.40;;
15451;SDS011;7827;53.594;9.938;2022-07-18T12:40:55;6.43;;;5.15;;
15451;SDS011;7827;53.594;9.938;2022-07-18T12:43:30;5.57;;;4.55;;
15451;SDS011;7827;53.594;9.938;2022-07-18T12:46:05;5.90;;;4.55;;
15451;SDS011;7827;53.594;9.938;2022-07-18T12:54:28;6.55;;;4.57;;
15451;SDS011;7827;53.594;9.938;2022-07-18T12:56:56;5.00;;;4.50;;
15451;SDS011;7827;53.594;9.938;2022-07-18T12:59:25;5.95;;;4.35;;
15451;SDS011;7827;53.594;9.938;2022-07-18T13:01:54;5.68;;;4.53;;
15451;SDS011;7827;53.594;9.938;2022-07-18T13:04:23;5.95;;;4.00;;
15451;SDS011;7827;53.594;9.938;2022-07-18T13:06:51;4.25;;;3.80;;
15451;SDS011;7827;53.594;9.938;2022-07-18T13:09:19;4.90;;;3.78;;
15451;SDS011;7827;53.594;9.938;2022-07-18T13:11:48;4.53;;;4.00;;
15451;SDS011;7827;53.594;9.938;2022-07-18T13:14:17;8.70;;;4.40;;
15451;SDS011;7827;53.594;9.938;2022-07-18T13:16:45;6.60;;;3.67;;
15451;SDS011;7827;53.594;9.938;2022-07-18T13:19:17;4.82;;;3.67;;
15451;SDS011;7827;53.594;9.938;2022-07-18T13:21:47;4.75;;;3.80;;
15451;SDS011;7827;53.594;9.938;2022-07-18T13:24:16;4.68;;;4.03;;
15451;SDS011;7827;53.594;9.938;2022-07-18T13:27:01;6.38;;;4.20;;
15451;SDS011;7827;53.594;9.938;2022-07-18T13:29:29;5.45;;;3.85;;
15451;SDS011;7827;53.594;9.938;2022-07-18T13:31:58;7.22;;;3.40;;
15451;SDS011;7827;53.594;9.938;2022-07-18T13:34:28;7.00;;;3.75;;
15451;SDS011;7827;53.594;9.938;2022-07-18T13:37:02;6.85;;;3.83;;
15451;SDS011;7827;53.594;9.938;2022-07-18T13:39:31;7.53;;;3.67;;
15451;SDS011;7827;53.594;9.938;2022-07-18T13:41:59;5.47;;;3.75;;
15451;SDS011;7827;53.594;9.938;2022-07-18T13:44:29;6.32;;;3.58;;
15451;SDS011;7827;53.594;9.938;2022-07-18T13:46:57;4.47;;;3.70;;
15451;SDS011;7827;53.594;9.938;2022-07-18T13:49:25;6.20;;;3.88;;
15451;SDS011;7827;53.594;9.938;2022-07-18T13:51:55;7.93;;;4.00;;
15451;SDS011;7827;53.594;9.938;2022-07-18T13:54:23;5.38;;;3.80;;
15451;SDS011;7827;53.594;9.938;2022-07-18T13:56:52;5.95;;;3.85;;
15451;SDS011;7827;53.594;9.938;2022-07-18T13:59:20;7.13;;;3.70;;
15451;SDS011;7827;53.594;9.938;2022-07-18T14:01:48;4.70;;;3.88;;
15451;SDS011;7827;53.594;9.938;2022-07-18T14:04:17;6.22;;;4.10;;
15451;SDS011;7827;53.594;9.938;2022-07-18T14:06:47;5.57;;;3.85;;
15451;SDS011;7827;53.594;9.938;2022-07-18T14:09:17;6.07;;;4.28;;
15451;SDS011;7827;53.594;9.938;2022-07-18T14:11:46;6.75;;;3.95;;
15451;SDS011;7827;53.594;9.938;2022-07-18T14:14:14;6.53;;;3.95;;
15451;SDS011;7827;53.594;9.938;2022-07-18T14:16:43;5.45;;;4.10;;
15451;SDS011;7827;53.594;9.938;2022-07-18T14:19:11;5.97;;;4.40;;
15451;SDS011;7827;53.594;9.938;2022-07-18T14:21:41;6.18;;;4.10;;
15451;SDS011;7827;53.594;9.938;2022-07-18T14:24:09;6.85;;;4.43;;
15451;SDS011;7827;53.594;9.938;2022-07-18T14:26:43;6.90;;;4.32;;
15451;SDS011;7827;53.594;9.938;2022-07-18T14:29:11;5.55;;;4.18;;
15451;SDS011;7827;53.594;9.938;2022-07-18T14:31:39;6.40;;;4.20;;
15451;SDS011;7827;53.594;9.938;2022-07-18T14:34:07;4.53;;;4.03;;
15451;SDS011;7827;53.594;9.938;2022-07-18T14:36:36;8.55;;;3.97;;
15451;SDS011;7827;53.594;9.938;2022-07-18T14:39:04;5.50;;;3.78;;
15451;SDS011;7827;53.594;9.938;2022-07-18T14:41:32;5.72;;;4.28;;
15451;SDS011;7827;53.594;9.938;2022-07-18T14:44:02;5.25;;;3.97;;
15451;SDS011;7827;53.594;9.938;2022-07-18T14:46:30;4.82;;;3.90;;
15451;SDS011;7827;53.594;9.938;2022-07-18T14:48:59;5.45;;;4.25;;
15451;SDS011;7827;53.594;9.938;2022-07-18T14:51:27;9.63;;;4.40;;
15451;SDS011;7827;53.594;9.938;2022-07-18T14:53:56;5.35;;;4.00;;
15451;SDS011;7827;53.594;9.938;2022-07-18T14:56:26;4.80;;;4.30;;
15451;SDS011;7827;53.594;9.938;2022-07-18T14:58:57;6.72;;;4.15;;
15451;SDS011;7827;53.594;9.938;2022-07-18T15:01:26;6.50;;;4.00;;
15451;SDS011;7827;53.594;9.938;2022-07-18T15:03:55;5.57;;;4.05;;
15451;SDS011;7827;53.594;9.938;2022-07-18T15:06:31;6.15;;;4.32;;
15451;SDS011;7827;53.594;9.938;2022-07-18T15:09:00;7.70;;;4.60;;
15451;SDS011;7827;53.594;9.938;2022-07-18T15:11:28;10.07;;;4.40;;
15451;SDS011;7827;53.594;9.938;2022-07-18T15:13:57;7.90;;;4.43;;
15451;SDS011;7827;53.594;9.938;2022-07-18T15:16:27;7.13;;;4.80;;
15451;SDS011;7827;53.594;9.938;2022-07-18T15:18:56;7.82;;;4.15;;
15451;SDS011;7827;53.594;9.938;2022-07-18T15:21:24;5.07;;;4.07;;
15451;SDS011;7827;53.594;9.938;2022-07-18T15:23:53;7.30;;;4.50;;
15451;SDS011;7827;53.594;9.938;2022-07-18T15:26:21;8.13;;;4.75;;
15451;SDS011;7827;53.594;9.938;2022-07-18T15:28:50;6.85;;;4.68;;
15451;SDS011;7827;53.594;9.938;2022-07-18T15:31:18;7.25;;;4.97;;
15451;SDS011;7827;53.594;9.938;2022-07-18T15:33:48;5.75;;;4.43;;